Terminal Aerodrome Forecast
Issued by NWS Brownsville, TX

Home | Current Version | Previous Version | Text Only | Print | Product List | Glossary On
Versions: 1 2 3 4 5 6 7 8 9 10 11 12 13 14 15 16 17 18 19 20 21 22
000
FTUS44 KBRO 211700
TAFBRO
TAF
KBRO 211739Z 2118/2218 08012G17KT P6SM VCSH SCT035 SCT050 BKN070
      TEMPO 2118/2120 4SM -SHRA BKN040
     FM220000 04006KT P6SM VCSH SCT040 OVC100
     FM220600 03005KT P6SM SCT050 BKN100 PROB30 2209/2212 5SM -SHRA
      BKN030
     FM221200 04007KT P6SM VCSH SCT030 BKN150 PROB30 2212/2215 5SM
      -SHRA BKN030=

USA.gov is the U.S. government's official web portal to all federal, state and local government web resources and services.